This is the latest recevied weather packets stored in our database for station/object GW1573. If no packets are shown the sender has not sent any weather packets the latest 10 day(s).
| Time | Temp. | Humidity | Pressure | Rain* | Wind** | Luminosity | Snow |
|---|---|---|---|---|---|---|---|
| 1777480578 | 20° C | 79% | 1009.4 hPa | 0 mm | - | - | - |
| 1777480229 | 20° C | 78% | 1009.1 hPa | 0 mm | - | - | - |
| 1777477711 | 18.89° C | 84% | 1010.1 hPa | 0 mm | - | - | - |
| 1777476262 | 19.44° C | 82% | 1010.4 hPa | 0 mm | - | - | - |
| 1777475927 | 19.44° C | 80% | 1010.1 hPa | 0 mm | - | - | - |
| 1777474460 | 20.56° C | 78% | 1010.1 hPa | 0 mm | - | - | - |
| 1777469810 | 17.22° C | 93% | 1010.8 hPa | 0 mm | - | - | - |
| 1777469074 | 17.22° C | 93% | 1011.1 hPa | 0 mm | - | - | - |
| 1777467288 | 16.67° C | 93% | 1011.1 hPa | 0 mm | - | - | - |
| 1777466905 | 16.67° C | 93% | 1011.5 hPa | 0 mm | - | - | - |
| 1777465467 | 16.67° C | 94% | 1011.1 hPa | 0 mm | - | - | - |
| 1777464765 | 16.67° C | 95% | 1011.1 hPa | 0 mm | - | - | - |
| 1777464394 | 16.67° C | 95% | 1011.1 hPa | 0 mm | - | - | - |
| 1777462581 | 16.11° C | 96% | 1011.1 hPa | 0 mm | - | - | - |
| 1777453241 | 16.11° C | 99% | 1011.1 hPa | 0 mm | - | - | - |
| 1777452889 | 15.56° C | 99% | 1011.1 hPa | 0 mm | - | - | - |
| 1777452153 | 16.11° C | 99% | 1011.1 hPa | 0 mm | - | - | - |
| 1777448568 | 15.56° C | 99% | 1011.5 hPa | 0 mm | - | - | - |
| 1777448179 | 15.56° C | 99% | 1011.5 hPa | 0 mm | - | - | - |
| 1777445669 | 15.56° C | 99% | 1011.8 hPa | 0 mm | - | - | - |
| 1777445331 | 15.56° C | 99% | 1012.1 hPa | 0 mm | - | - | - |
| 1777443879 | 15.56° C | 99% | 1012.5 hPa | 0 mm | - | - | - |
| 1777442072 | 16.11° C | 99% | 1012.5 hPa | 0 mm | - | - | - |
| 1777441332 | 15.56° C | 99% | 1012.8 hPa | 0 mm | - | - | - |
| 1777438126 | 16.11° C | 99% | 1013.8 hPa | 0 mm | - | - | - |
* Rain since midnight (hover to see other rain measurements)
** Current wind speed in m/s (hover to see current wind gust speed)